Clinton Corners, New York
Current Conditions -  °F | °C
As of 7:53 PM on Friday 28 Nov 2014 (Local Time) from KPOU Reporting Station
Clear Clear  
Wind Chill: 21°   Ceiling: Unl
Heat Index: 21°   Visibility: 10mi
Dew Point: 13°   Wind: 3mph
Humidity: 71%   Direction: 50°NE
Pressure: 30.24"   Gusts: NA
Location:  41.83°N, 73.76°W
Report Text: KPOU 290053Z 05003KT 10SM CLR M06/M11 A3024 RMK AO2 SLP239 T10611106
Loading
Personal Weather Stations






























Interactive Weather Map New forecast layout! Learn more

10-Day Weather Forecast

Advertisements
Track Severe Weather on mobile